createdAt,value
2018-05-10T00:00:08.188Z,99.99
2018-05-10T00:01:08.860Z,99.99
2018-05-10T00:02:09.582Z,99.99
2018-05-10T00:03:10.257Z,99.99
2018-05-10T00:04:10.927Z,99.99
2018-05-10T00:05:11.599Z,99.99
2018-05-10T00:06:12.274Z,99.99
2018-05-10T00:07:12.945Z,99.99
2018-05-10T00:08:13.621Z,99.99
2018-05-10T00:09:14.293Z,99.99
2018-05-10T00:10:14.966Z,99.99
2018-05-10T00:11:15.640Z,99.99
2018-05-10T00:12:16.310Z,99.99
2018-05-10T00:13:16.981Z,99.99
2018-05-10T00:14:17.652Z,99.99
2018-05-10T00:15:18.328Z,99.99
2018-05-10T00:16:19.009Z,99.99
2018-05-10T00:17:19.681Z,99.99
2018-05-10T00:18:20.351Z,99.99
2018-05-10T00:19:21.022Z,99.99
2018-05-10T00:20:21.694Z,99.99
2018-05-10T00:21:22.376Z,99.99
2018-05-10T00:22:23.054Z,99.99
2018-05-10T00:23:23.729Z,99.99
2018-05-10T00:24:24.468Z,99.99
2018-05-10T00:25:25.077Z,99.99
2018-05-10T00:26:25.749Z,99.99
2018-05-10T00:27:26.420Z,99.99
2018-05-10T00:28:27.091Z,99.99
2018-05-10T00:29:27.762Z,99.99
2018-05-10T00:30:28.438Z,99.99
2018-05-10T00:31:29.109Z,99.99
2018-05-10T00:32:29.779Z,99.99
2018-05-10T00:33:30.466Z,99.99
2018-05-10T00:34:31.355Z,99.99
2018-05-10T00:35:32.026Z,99.99
2018-05-10T00:36:32.700Z,99.99
2018-05-10T00:37:33.372Z,99.99
2018-05-10T00:38:34.041Z,99.99
2018-05-10T00:39:34.710Z,99.99
2018-05-10T00:40:35.389Z,99.99
2018-05-10T00:41:36.058Z,99.99
2018-05-10T00:42:36.735Z,99.99
2018-05-10T00:43:37.402Z,99.99
2018-05-10T00:44:38.072Z,99.99
2018-05-10T00:45:38.746Z,99.99
2018-05-10T00:46:39.426Z,99.99
2018-05-10T00:47:40.100Z,99.99
2018-05-10T00:48:40.768Z,99.99
2018-05-10T00:49:41.437Z,99.99
2018-05-10T00:50:42.116Z,99.99
2018-05-10T00:51:42.789Z,99.99
2018-05-10T00:52:43.459Z,99.99
2018-05-10T00:53:44.129Z,99.99
2018-05-10T00:54:44.801Z,99.99
2018-05-10T00:55:45.472Z,99.99
2018-05-10T00:56:46.147Z,99.99
2018-05-10T00:57:46.819Z,99.99
2018-05-10T00:58:47.489Z,99.99
2018-05-10T00:59:48.160Z,99.99
2018-05-10T01:00:48.832Z,99.99
2018-05-10T01:01:49.504Z,99.99
2018-05-10T01:02:50.177Z,99.99
2018-05-10T01:03:50.847Z,99.99
2018-05-10T01:04:51.607Z,99.99
2018-05-10T01:05:52.194Z,99.99
2018-05-10T01:06:52.868Z,99.99
2018-05-10T01:07:53.540Z,99.99
2018-05-10T01:08:54.215Z,99.99
2018-05-10T01:09:54.884Z,99.99
2018-05-10T01:10:55.553Z,99.99
2018-05-10T01:11:56.229Z,99.99
2018-05-10T01:12:56.896Z,99.99
2018-05-10T01:13:57.569Z,99.99
2018-05-10T01:14:58.245Z,99.99
2018-05-10T01:15:58.917Z,99.99
2018-05-10T01:16:59.589Z,99.99
2018-05-10T01:18:00.259Z,99.99
2018-05-10T01:19:00.930Z,99.99
2018-05-10T01:20:01.604Z,99.99
2018-05-10T01:21:02.273Z,99.99
2018-05-10T01:22:02.946Z,99.99
2018-05-10T01:23:03.619Z,99.99
2018-05-10T01:24:04.290Z,99.99
2018-05-10T01:25:04.960Z,99.99
2018-05-10T01:26:05.631Z,99.99
2018-05-10T01:27:06.304Z,99.99
2018-05-10T01:28:06.977Z,99.99
2018-05-10T01:29:07.647Z,99.99
2018-05-10T01:30:08.318Z,99.99
2018-05-10T01:31:08.992Z,99.99
2018-05-10T01:32:09.668Z,99.99
2018-05-10T01:33:10.341Z,99.99
2018-05-10T01:34:11.012Z,99.99
2018-05-10T01:35:11.685Z,99.99
2018-05-10T01:36:12.361Z,99.99
2018-05-10T01:37:13.035Z,99.99
2018-05-10T01:38:13.716Z,99.99
2018-05-10T01:39:14.397Z,99.99
2018-05-10T01:40:15.069Z,99.99
2018-05-10T01:41:15.737Z,99.99
2018-05-10T01:42:16.426Z,99.99
2018-05-10T01:43:17.100Z,99.99
2018-05-10T01:44:17.772Z,99.99
2018-05-10T01:45:18.444Z,99.99
2018-05-10T01:46:19.115Z,99.99
2018-05-10T01:47:19.785Z,99.99
2018-05-10T01:48:20.456Z,99.99
2018-05-10T01:49:21.125Z,99.99
2018-05-10T01:50:21.796Z,99.99
2018-05-10T01:51:22.470Z,99.99
2018-05-10T01:52:23.141Z,99.99
2018-05-10T01:53:23.815Z,99.99
2018-05-10T01:54:24.497Z,99.99
2018-05-10T01:55:25.170Z,99.99
2018-05-10T01:56:25.841Z,99.99
2018-05-10T01:57:26.511Z,99.99
2018-05-10T01:58:27.182Z,99.99
2018-05-10T01:59:27.854Z,99.99
2018-05-10T02:00:28.525Z,99.99
2018-05-10T02:01:29.199Z,99.99
2018-05-10T02:02:29.871Z,99.99
2018-05-10T02:03:30.543Z,99.99
2018-05-10T02:04:31.214Z,99.99
2018-05-10T02:05:31.887Z,99.99
2018-05-10T02:06:32.556Z,99.99
2018-05-10T02:07:33.230Z,99.99
2018-05-10T02:08:33.903Z,99.99
2018-05-10T02:09:34.577Z,99.99
2018-05-10T02:10:35.261Z,99.99
2018-05-10T02:11:35.924Z,99.99
2018-05-10T02:12:36.594Z,99.99
2018-05-10T02:13:37.265Z,99.99
2018-05-10T02:14:37.939Z,99.99
2018-05-10T02:15:38.606Z,99.99
2018-05-10T02:16:39.278Z,99.99
2018-05-10T02:17:39.948Z,99.99
2018-05-10T02:18:40.621Z,99.99
2018-05-10T02:19:41.292Z,99.99
2018-05-10T02:20:41.975Z,99.99
2018-05-10T02:21:42.645Z,99.99
2018-05-10T02:22:43.313Z,99.99
2018-05-10T02:23:44.058Z,99.99
2018-05-10T02:24:44.661Z,99.99
2018-05-10T02:25:45.340Z,99.99
2018-05-10T02:26:46.011Z,99.99
2018-05-10T02:27:46.682Z,99.99
2018-05-10T02:28:47.358Z,99.99
2018-05-10T02:29:48.113Z,99.99
2018-05-10T02:30:48.698Z,99.99
2018-05-10T02:31:49.368Z,99.99
2018-05-10T02:32:50.039Z,99.66
2018-05-10T02:33:50.709Z,99.99
2018-05-10T02:34:51.383Z,99.71
2018-05-10T02:35:52.052Z,99.99
2018-05-10T02:36:52.727Z,99.99
2018-05-10T02:37:53.401Z,99.99
2018-05-10T02:38:54.075Z,99.85
2018-05-10T02:39:54.753Z,99.99
2018-05-10T02:40:55.419Z,99.85
2018-05-10T02:41:56.096Z,99.85
2018-05-10T02:42:56.768Z,99.99
2018-05-10T02:43:57.442Z,99.85
2018-05-10T02:44:58.235Z,99.95
2018-05-10T02:45:58.792Z,99.99
2018-05-10T02:46:59.464Z,98.99
2018-05-10T02:48:00.140Z,98.99
2018-05-10T02:49:00.808Z,99.28
2018-05-10T02:50:01.490Z,98.71
2018-05-10T02:51:02.154Z,99.08
2018-05-10T02:52:02.825Z,98.90
2018-05-10T02:53:03.507Z,98.23
2018-05-10T02:54:04.180Z,98.23
2018-05-10T02:55:04.851Z,98.03
2018-05-10T02:56:05.522Z,98.42
2018-05-10T02:57:06.200Z,98.42
2018-05-10T02:58:06.870Z,98.52
2018-05-10T02:59:07.544Z,99.37
2018-05-10T03:00:08.209Z,99.13
2018-05-10T03:01:08.884Z,99.18
2018-05-10T03:02:09.556Z,99.23
2018-05-10T03:03:10.229Z,99.42
2018-05-10T03:04:10.902Z,99.47
2018-05-10T03:05:11.571Z,99.13
2018-05-10T03:06:12.252Z,98.66
2018-05-10T03:07:12.939Z,98.66
2018-05-10T03:08:13.612Z,98.71
2018-05-10T03:09:14.296Z,98.37
2018-05-10T03:10:14.970Z,98.27
2018-05-10T03:11:15.645Z,98.18
2018-05-10T03:12:16.315Z,98.66
2018-05-10T03:13:16.986Z,98.37
2018-05-10T03:14:17.663Z,98.56
2018-05-10T03:15:18.333Z,98.27
2018-05-10T03:16:19.010Z,98.18
2018-05-10T03:17:19.683Z,98.18
2018-05-10T03:18:20.357Z,98.08
2018-05-10T03:19:21.118Z,97.99
2018-05-10T03:20:21.709Z,98.37
2018-05-10T03:21:22.381Z,98.18
2018-05-10T03:22:23.054Z,97.99
2018-05-10T03:23:23.727Z,97.80
2018-05-10T03:24:24.396Z,98.37
2018-05-10T03:25:25.069Z,98.08
2018-05-10T03:26:25.741Z,97.71
2018-05-10T03:27:26.412Z,97.80
2018-05-10T03:28:27.085Z,97.80
2018-05-10T03:29:27.756Z,97.80
2018-05-10T03:30:28.438Z,97.71
2018-05-10T03:31:29.114Z,97.51
2018-05-10T03:32:29.786Z,97.61
2018-05-10T03:33:30.459Z,97.42
2018-05-10T03:34:31.133Z,97.32
2018-05-10T03:35:31.807Z,97.89
2018-05-10T03:36:32.486Z,97.13
2018-05-10T03:37:33.165Z,97.51
2018-05-10T03:38:33.831Z,97.42
2018-05-10T03:39:34.502Z,97.32
2018-05-10T03:40:35.247Z,97.80
2018-05-10T03:41:35.850Z,97.32
2018-05-10T03:42:36.523Z,97.32
2018-05-10T03:43:37.204Z,97.61
2018-05-10T03:44:37.869Z,97.71
2018-05-10T03:45:38.549Z,97.71
2018-05-10T03:46:39.216Z,96.84
2018-05-10T03:47:39.895Z,96.84
2018-05-10T03:48:40.566Z,97.13
2018-05-10T03:49:41.237Z,97.03
2018-05-10T03:50:41.909Z,97.03
2018-05-10T03:51:42.583Z,97.42
2018-05-10T03:52:43.254Z,97.42
2018-05-10T03:53:43.928Z,96.66
2018-05-10T03:54:44.602Z,96.46
2018-05-10T03:55:45.280Z,96.75
2018-05-10T03:56:46.033Z,96.56
2018-05-10T03:57:46.626Z,96.56
2018-05-10T03:58:47.304Z,96.27
2018-05-10T03:59:47.973Z,96.08
2018-05-10T04:00:48.648Z,96.08
2018-05-10T04:01:49.329Z,96.17
2018-05-10T04:02:50.005Z,96.08
2018-05-10T04:03:50.677Z,95.98
2018-05-10T04:04:51.350Z,96.08
2018-05-10T04:05:52.023Z,96.08
2018-05-10T04:06:52.694Z,96.17
2018-05-10T04:07:53.368Z,96.08
2018-05-10T04:08:54.039Z,96.08
2018-05-10T04:09:54.710Z,95.70
2018-05-10T04:10:55.387Z,95.70
2018-05-10T04:11:56.062Z,95.79
2018-05-10T04:12:56.744Z,94.93
2018-05-10T04:13:57.417Z,95.22
2018-05-10T04:14:58.090Z,95.41
2018-05-10T04:15:58.763Z,95.51
2018-05-10T04:16:59.440Z,94.93
2018-05-10T04:18:00.111Z,95.03
2018-05-10T04:19:00.786Z,94.93
2018-05-10T04:20:01.469Z,94.65
2018-05-10T04:21:02.141Z,94.93
2018-05-10T04:22:02.811Z,95.03
2018-05-10T04:23:03.485Z,95.32
2018-05-10T04:24:04.161Z,95.22
2018-05-10T04:25:04.839Z,94.93
2018-05-10T04:26:05.512Z,94.46
2018-05-10T04:27:06.188Z,94.27
2018-05-10T04:28:06.860Z,94.46
2018-05-10T04:29:07.529Z,94.27
2018-05-10T04:30:08.205Z,94.17
2018-05-10T04:31:08.883Z,94.17
2018-05-10T04:32:09.560Z,94.36
2018-05-10T04:33:10.235Z,94.07
2018-05-10T04:34:10.910Z,93.70
2018-05-10T04:35:11.590Z,93.70
2018-05-10T04:36:12.259Z,93.70
2018-05-10T04:37:12.934Z,93.60
2018-05-10T04:38:13.606Z,93.98
2018-05-10T04:39:14.283Z,93.51
2018-05-10T04:40:14.956Z,93.31
2018-05-10T04:41:15.628Z,92.83
2018-05-10T04:42:16.416Z,93.60
2018-05-10T04:43:16.991Z,93.41
2018-05-10T04:44:17.665Z,93.31
2018-05-10T04:45:18.341Z,93.51
2018-05-10T04:46:19.018Z,93.60
2018-05-10T04:47:19.702Z,93.22
2018-05-10T04:48:20.374Z,93.60
2018-05-10T04:49:21.045Z,93.41
2018-05-10T04:50:21.720Z,93.41
2018-05-10T04:51:22.395Z,93.41
2018-05-10T04:52:23.074Z,93.79
2018-05-10T04:53:23.750Z,93.12
2018-05-10T04:54:24.427Z,93.36
2018-05-10T04:55:25.098Z,93.17
2018-05-10T04:56:25.776Z,93.07
2018-05-10T04:57:26.448Z,92.41
2018-05-10T04:58:27.121Z,92.41
2018-05-10T04:59:27.795Z,92.31
2018-05-10T05:00:28.477Z,92.60
2018-05-10T05:01:29.155Z,92.21
2018-05-10T05:02:29.832Z,92.50
2018-05-10T05:03:30.515Z,92.21
2018-05-10T05:04:31.185Z,92.50
2018-05-10T05:05:31.863Z,92.60
2018-05-10T05:06:32.537Z,92.60
2018-05-10T05:07:33.219Z,91.74
2018-05-10T05:08:33.890Z,92.12
2018-05-10T05:09:34.561Z,91.74
2018-05-10T05:10:35.238Z,92.12
2018-05-10T05:11:35.911Z,91.93
2018-05-10T05:12:36.581Z,91.74
2018-05-10T05:13:37.260Z,91.93
2018-05-10T05:14:37.954Z,92.02
2018-05-10T05:15:38.625Z,91.83
2018-05-10T05:16:39.298Z,91.07
2018-05-10T05:17:39.976Z,91.40
2018-05-10T05:18:40.652Z,91.40
2018-05-10T05:19:41.331Z,91.30
2018-05-10T05:20:42.006Z,91.21
2018-05-10T05:21:42.684Z,90.92
2018-05-10T05:22:43.360Z,91.21
2018-05-10T05:23:44.035Z,90.73
2018-05-10T05:24:44.712Z,91.02
2018-05-10T05:25:45.384Z,90.83
2018-05-10T05:26:46.076Z,90.73
2018-05-10T05:27:46.740Z,90.73
2018-05-10T05:28:47.413Z,91.30
2018-05-10T05:29:48.089Z,90.83
2018-05-10T05:30:48.772Z,91.02
2018-05-10T05:31:49.448Z,90.92
2018-05-10T05:32:50.127Z,91.02
2018-05-10T05:33:50.802Z,91.21
2018-05-10T05:34:51.479Z,91.02
2018-05-10T05:35:52.154Z,90.92
2018-05-10T05:36:52.832Z,90.83
2018-05-10T05:37:53.504Z,90.54
2018-05-10T05:38:54.182Z,90.73
2018-05-10T05:39:54.858Z,90.16
2018-05-10T05:40:55.537Z,89.97
2018-05-10T05:41:56.212Z,90.64
2018-05-10T05:42:56.887Z,90.25
2018-05-10T05:43:57.561Z,90.16
2018-05-10T05:44:58.246Z,90.06
2018-05-10T05:45:58.917Z,90.06
2018-05-10T05:46:59.592Z,89.87
2018-05-10T05:48:00.267Z,90.45
2018-05-10T05:49:00.947Z,90.11
2018-05-10T05:50:01.623Z,90.20
2018-05-10T05:51:02.300Z,90.20
2018-05-10T05:52:03.020Z,89.44
2018-05-10T05:53:03.648Z,89.53
2018-05-10T05:54:04.325Z,89.34
2018-05-10T05:55:05.017Z,89.53
2018-05-10T05:56:05.679Z,89.73
2018-05-10T05:57:06.357Z,89.06
2018-05-10T05:58:07.031Z,89.15
2018-05-10T05:59:07.705Z,89.15
2018-05-10T06:00:08.380Z,89.06
2018-05-10T06:01:09.059Z,88.96
2018-05-10T06:02:09.738Z,89.25
2018-05-10T06:03:10.429Z,89.06
2018-05-10T06:04:11.120Z,88.96
2018-05-10T06:05:11.758Z,89.34
2018-05-10T06:06:12.475Z,88.96
2018-05-10T06:07:13.151Z,89.06
2018-05-10T06:08:13.827Z,89.06
2018-05-10T06:09:14.505Z,88.68
2018-05-10T06:10:15.180Z,89.15
2018-05-10T06:11:15.858Z,88.39
2018-05-10T06:12:16.533Z,88.29
2018-05-10T06:13:17.216Z,88.10
2018-05-10T06:14:17.894Z,88.20
2018-05-10T06:15:18.572Z,88.43
2018-05-10T06:16:19.251Z,88.01
2018-05-10T06:17:19.927Z,88.20
2018-05-10T06:18:20.606Z,88.15
2018-05-10T06:19:21.279Z,88.15
2018-05-10T06:20:21.963Z,88.43
2018-05-10T06:21:22.642Z,88.43
2018-05-10T06:22:23.322Z,88.05
2018-05-10T06:23:24.003Z,87.66
2018-05-10T06:24:24.677Z,87.95
2018-05-10T06:25:25.356Z,87.57
2018-05-10T06:26:26.030Z,87.66
2018-05-10T06:27:26.694Z,87.76
2018-05-10T06:28:27.386Z,87.76
2018-05-10T06:29:28.058Z,87.95
2018-05-10T06:30:28.739Z,88.15
2018-05-10T06:31:29.413Z,87.76
2018-05-10T06:32:30.096Z,87.38
2018-05-10T06:33:30.772Z,88.05
2018-05-10T06:34:31.448Z,87.19
2018-05-10T06:35:32.133Z,87.19
2018-05-10T06:36:32.809Z,87.00
2018-05-10T06:37:33.491Z,87.09
2018-05-10T06:38:34.166Z,87.14
2018-05-10T06:39:34.844Z,87.09
2018-05-10T06:40:35.520Z,87.09
2018-05-10T06:41:36.223Z,86.76
2018-05-10T06:42:36.878Z,87.33
2018-05-10T06:43:37.558Z,87.14
2018-05-10T06:44:38.234Z,87.43
2018-05-10T06:45:38.916Z,87.33
2018-05-10T06:46:39.593Z,87.71
2018-05-10T06:47:40.275Z,88.29
2018-05-10T06:48:40.956Z,88.09
2018-05-10T06:49:41.634Z,88.19
2018-05-10T06:50:42.314Z,87.23
2018-05-10T06:51:43.002Z,87.14
2018-05-10T06:52:43.684Z,86.76
2018-05-10T06:53:44.371Z,88.09
2018-05-10T06:54:45.107Z,87.56
2018-05-10T06:55:45.734Z,87.33
2018-05-10T06:56:46.422Z,86.51
2018-05-10T06:57:47.103Z,86.32
2018-05-10T06:58:47.782Z,86.66
2018-05-10T06:59:48.464Z,85.65
2018-05-10T07:00:49.140Z,85.94
2018-05-10T07:01:49.818Z,85.94
2018-05-10T07:02:50.503Z,85.84
2018-05-10T07:03:51.180Z,85.84
2018-05-10T07:04:51.854Z,86.13
2018-05-10T07:05:52.540Z,86.04
2018-05-10T07:06:53.219Z,85.08
2018-05-10T07:07:53.894Z,85.36
2018-05-10T07:08:54.577Z,85.46
2018-05-10T07:09:55.464Z,84.92
2018-05-10T07:10:55.934Z,84.55
2018-05-10T07:11:56.611Z,84.64
2018-05-10T07:12:57.289Z,84.83
2018-05-10T07:13:57.967Z,84.64
2018-05-10T07:14:58.644Z,84.26
2018-05-10T07:15:59.325Z,83.78
2018-05-10T07:17:00.011Z,84.92
2018-05-10T07:18:00.688Z,83.87
2018-05-10T07:19:01.367Z,83.97
2018-05-10T07:20:02.049Z,83.97
2018-05-10T07:21:02.725Z,83.78
2018-05-10T07:22:03.407Z,83.87
2018-05-10T07:23:04.082Z,83.97
2018-05-10T07:24:04.759Z,84.35
2018-05-10T07:25:05.534Z,84.45
2018-05-10T07:26:06.117Z,84.16
2018-05-10T07:27:06.794Z,84.16
2018-05-10T07:28:07.474Z,84.26
2018-05-10T07:29:08.156Z,84.58
2018-05-10T07:30:08.831Z,84.45
2018-05-10T07:31:09.513Z,84.68
2018-05-10T07:32:10.191Z,84.11
2018-05-10T07:33:10.870Z,84.49
2018-05-10T07:34:11.547Z,84.68
2018-05-10T07:35:12.226Z,84.49
2018-05-10T07:36:12.912Z,83.82
2018-05-10T07:37:13.588Z,84.11
2018-05-10T07:38:14.268Z,83.82
2018-05-10T07:39:14.953Z,83.72
2018-05-10T07:40:15.625Z,83.92
2018-05-10T07:41:16.321Z,83.95
2018-05-10T07:42:17.149Z,83.95
2018-05-10T07:43:17.825Z,83.92
2018-05-10T07:44:18.515Z,83.76
2018-05-10T07:45:19.200Z,84.11
2018-05-10T07:46:19.882Z,84.01
2018-05-10T07:47:20.653Z,83.86
2018-05-10T07:48:21.250Z,83.95
2018-05-10T07:49:21.928Z,84.05
2018-05-10T07:50:22.611Z,83.86
2018-05-10T07:51:23.291Z,83.58
2018-05-10T07:52:23.965Z,83.71
2018-05-10T07:53:24.653Z,83.48
2018-05-10T07:54:25.333Z,83.71
2018-05-10T07:55:26.019Z,83.04
2018-05-10T07:56:26.701Z,83.04
2018-05-10T07:57:27.378Z,83.04
2018-05-10T07:58:28.059Z,82.85
2018-05-10T07:59:28.744Z,82.94
2018-05-10T08:00:29.415Z,83.14
2018-05-10T08:01:30.101Z,83.42
2018-05-10T08:02:30.792Z,83.61
2018-05-10T08:03:31.474Z,83.23
2018-05-10T08:04:32.150Z,83.14
2018-05-10T08:05:32.828Z,83.04
2018-05-10T08:06:33.506Z,82.89
2018-05-10T08:07:34.187Z,82.98
2018-05-10T08:08:34.866Z,83.08
2018-05-10T08:09:35.545Z,82.89
2018-05-10T08:10:36.231Z,82.79
2018-05-10T08:11:36.907Z,82.89
2018-05-10T08:12:37.601Z,82.98
2018-05-10T08:13:38.283Z,82.79
2018-05-10T08:14:38.968Z,82.74
2018-05-10T08:15:39.650Z,82.84
2018-05-10T08:16:40.329Z,82.45
2018-05-10T08:17:41.012Z,81.78
2018-05-10T08:18:41.692Z,81.68
2018-05-10T08:19:42.388Z,82.07
2018-05-10T08:20:43.082Z,82.07
2018-05-10T08:21:43.762Z,82.01
2018-05-10T08:22:44.441Z,81.72
2018-05-10T08:23:45.130Z,81.24
2018-05-10T08:24:45.807Z,81.15
2018-05-10T08:25:46.493Z,81.34
2018-05-10T08:26:47.177Z,80.47
2018-05-10T08:27:47.859Z,80.66
2018-05-10T08:28:48.534Z,79.80
2018-05-10T08:29:49.224Z,79.52
2018-05-10T08:30:49.900Z,79.07
2018-05-10T08:31:50.591Z,79.17
2018-05-10T08:32:51.271Z,79.17
2018-05-10T08:33:51.964Z,78.98
2018-05-10T08:34:52.645Z,78.73
2018-05-10T08:35:53.331Z,79.21
2018-05-10T08:36:54.011Z,78.73
2018-05-10T08:37:54.689Z,78.44
2018-05-10T08:38:55.369Z,77.76
2018-05-10T08:39:56.051Z,77.96
2018-05-10T08:40:56.732Z,78.06
2018-05-10T08:41:57.419Z,77.76
2018-05-10T08:42:58.110Z,77.86
2018-05-10T08:43:58.795Z,77.96
2018-05-10T08:44:59.565Z,77.51
2018-05-10T08:46:00.159Z,77.81
2018-05-10T08:47:00.838Z,78.00
2018-05-10T08:48:01.523Z,77.56
2018-05-10T08:49:02.213Z,77.08
2018-05-10T08:50:02.898Z,76.78
2018-05-10T08:51:03.578Z,76.40
2018-05-10T08:52:04.265Z,75.54
2018-05-10T08:53:04.947Z,75.44
2018-05-10T08:54:05.635Z,75.82
2018-05-10T08:55:06.309Z,75.54
2018-05-10T08:56:06.997Z,75.48
2018-05-10T08:57:07.591Z,75.28
2018-05-10T08:58:08.376Z,74.99
2018-05-10T08:59:09.054Z,74.86
2018-05-10T09:00:09.731Z,74.51
2018-05-10T09:01:10.413Z,74.99
2018-05-10T09:02:11.101Z,75.19
2018-05-10T09:03:11.788Z,75.38
2018-05-10T09:04:12.474Z,75.76
2018-05-10T09:05:13.161Z,75.09
2018-05-10T09:06:13.845Z,75.67
2018-05-10T09:07:14.536Z,75.15
2018-05-10T09:08:15.216Z,75.09
2018-05-10T09:09:15.902Z,74.99
2018-05-10T09:10:16.586Z,74.41
2018-05-10T09:11:17.267Z,74.51
2018-05-10T09:12:17.947Z,74.13
2018-05-10T09:13:18.629Z,74.51
2018-05-10T09:14:19.310Z,74.71
2018-05-10T09:15:19.990Z,74.36
2018-05-10T09:16:20.676Z,73.88
2018-05-10T09:17:21.355Z,74.20
2018-05-10T09:18:22.037Z,73.82
2018-05-10T09:19:22.722Z,74.20
2018-05-10T09:20:23.489Z,73.91
2018-05-10T09:21:24.085Z,74.84
2018-05-10T09:22:24.766Z,74.65
2018-05-10T09:23:25.446Z,74.01
2018-05-10T09:24:26.126Z,74.40
2018-05-10T09:25:26.804Z,74.20
2018-05-10T09:26:27.487Z,74.10
2018-05-10T09:27:28.173Z,74.49
2018-05-10T09:28:28.855Z,75.74
2018-05-10T09:29:29.540Z,75.65
2018-05-10T09:30:30.231Z,75.07
2018-05-10T09:31:30.967Z,74.74
2018-05-10T09:32:31.594Z,75.03
2018-05-10T09:33:32.278Z,74.65
2018-05-10T09:34:32.957Z,74.65
2018-05-10T09:35:33.641Z,73.88
2018-05-10T09:36:34.318Z,74.07
2018-05-10T09:37:35.000Z,73.53
2018-05-10T09:38:35.681Z,73.72
2018-05-10T09:39:36.430Z,73.14
2018-05-10T09:40:37.042Z,73.01
2018-05-10T09:41:37.723Z,72.66
2018-05-10T09:42:38.408Z,72.66
2018-05-10T09:43:39.089Z,72.37
2018-05-10T09:44:39.771Z,72.18
2018-05-10T09:45:40.462Z,71.70
2018-05-10T09:46:41.149Z,71.79
2018-05-10T09:47:41.826Z,71.31
2018-05-10T09:48:42.523Z,71.98
2018-05-10T09:49:43.207Z,71.85
2018-05-10T09:50:43.889Z,71.70
2018-05-10T09:51:44.568Z,71.12
2018-05-10T09:52:45.273Z,70.86
2018-05-10T09:53:45.946Z,71.06
2018-05-10T09:54:46.679Z,70.96
2018-05-10T09:55:47.368Z,71.86
2018-05-10T09:56:48.047Z,70.80
2018-05-10T09:57:48.729Z,70.32
2018-05-10T09:58:49.413Z,71.28
2018-05-10T09:59:50.146Z,70.80
2018-05-10T10:00:50.780Z,71.00
2018-05-10T10:01:51.464Z,71.09
2018-05-10T10:02:52.151Z,70.09
2018-05-10T10:03:52.828Z,71.09
2018-05-10T10:04:53.511Z,70.70
2018-05-10T10:05:54.194Z,72.21
2018-05-10T10:06:54.874Z,72.25
2018-05-10T10:07:55.551Z,72.44
2018-05-10T10:08:56.235Z,73.11
2018-05-10T10:09:56.920Z,72.77
2018-05-10T10:10:57.607Z,72.73
2018-05-10T10:11:58.295Z,73.11
2018-05-10T10:12:58.972Z,73.60
2018-05-10T10:13:59.655Z,74.24
2018-05-10T10:15:00.337Z,74.40
2018-05-10T10:16:01.017Z,74.72
2018-05-10T10:17:01.698Z,74.14
2018-05-10T10:18:02.380Z,74.14
2018-05-10T10:19:03.062Z,74.14
2018-05-10T10:20:03.748Z,73.57
2018-05-10T10:21:04.441Z,73.69
2018-05-10T10:22:05.122Z,73.57
2018-05-10T10:23:05.804Z,74.24
2018-05-10T10:24:06.482Z,74.01
2018-05-10T10:25:07.233Z,74.10
2018-05-10T10:26:07.858Z,73.85
2018-05-10T10:27:08.537Z,73.66
2018-05-10T10:28:09.225Z,73.18
2018-05-10T10:29:09.903Z,72.41
2018-05-10T10:30:10.586Z,72.89
2018-05-10T10:31:11.266Z,74.33
2018-05-10T10:32:11.955Z,74.01
2018-05-10T10:33:12.646Z,74.52
2018-05-10T10:34:13.329Z,74.24
2018-05-10T10:35:14.023Z,74.62
2018-05-10T10:36:14.706Z,74.62
2018-05-10T10:37:15.388Z,73.85
2018-05-10T10:38:16.100Z,74.43
2018-05-10T10:39:16.756Z,73.91
2018-05-10T10:40:17.448Z,74.01
2018-05-10T10:41:18.128Z,74.30
2018-05-10T10:42:18.816Z,74.78
2018-05-10T10:43:19.503Z,74.49
2018-05-10T10:44:20.180Z,74.49
2018-05-10T10:45:20.906Z,74.68
2018-05-10T10:46:21.540Z,74.01
2018-05-10T10:47:22.219Z,73.91
2018-05-10T10:48:22.899Z,74.65
2018-05-10T10:49:23.585Z,74.49
2018-05-10T10:50:24.266Z,74.45
2018-05-10T10:51:24.946Z,74.58
2018-05-10T10:52:25.642Z,74.49
2018-05-10T10:53:26.323Z,74.78
2018-05-10T10:54:27.003Z,75.13
2018-05-10T10:55:27.686Z,75.42
2018-05-10T10:56:28.366Z,76.18
2018-05-10T10:57:29.050Z,76.28
2018-05-10T10:58:29.732Z,77.15
2018-05-10T10:59:30.413Z,77.50
2018-05-10T11:00:31.095Z,77.44
2018-05-10T11:01:31.800Z,77.63
2018-05-10T11:02:32.494Z,77.25
2018-05-10T11:03:33.178Z,77.21
2018-05-10T11:04:33.861Z,77.40
2018-05-10T11:05:34.551Z,77.88
2018-05-10T11:06:35.238Z,77.78
2018-05-10T11:07:35.928Z,78.56
2018-05-10T11:08:36.609Z,78.46
2018-05-10T11:09:37.291Z,78.36
2018-05-10T11:10:37.971Z,78.56
2018-05-10T11:11:38.655Z,78.56
2018-05-10T11:12:39.338Z,77.08
2018-05-10T11:13:40.020Z,76.44
2018-05-10T11:14:40.699Z,76.31
2018-05-10T11:15:41.382Z,75.54
2018-05-10T11:16:42.064Z,75.24
2018-05-10T11:17:42.748Z,74.86
2018-05-10T11:18:43.433Z,74.76
2018-05-10T11:19:44.115Z,74.76
2018-05-10T11:20:44.879Z,74.67
2018-05-10T11:21:45.475Z,75.05
2018-05-10T11:22:46.150Z,74.96
2018-05-10T11:23:46.838Z,74.96
2018-05-10T11:24:47.574Z,74.67
2018-05-10T11:25:48.199Z,73.99
2018-05-10T11:26:48.881Z,72.94
2018-05-10T11:27:49.571Z,71.78
2018-05-10T11:28:50.251Z,71.59
2018-05-10T11:29:50.932Z,71.75
2018-05-10T11:30:51.612Z,72.23
2018-05-10T11:31:52.292Z,72.45
2018-05-10T11:32:53.011Z,72.36
2018-05-10T11:33:53.677Z,72.84
2018-05-10T11:34:54.358Z,73.90
2018-05-10T11:35:55.043Z,74.05
2018-05-10T11:36:55.724Z,75.98
2018-05-10T11:37:56.404Z,76.01
2018-05-10T11:38:57.084Z,76.07
2018-05-10T11:39:57.763Z,76.75
2018-05-10T11:40:58.544Z,77.42
2018-05-10T11:41:59.131Z,77.33
2018-05-10T11:42:59.819Z,77.75
2018-05-10T11:44:00.509Z,77.46
2018-05-10T11:45:01.269Z,77.56
2018-05-10T11:46:01.897Z,78.13
2018-05-10T11:47:02.575Z,78.13
2018-05-10T11:48:03.260Z,79.38
2018-05-10T11:49:03.951Z,80.06
2018-05-10T11:50:04.629Z,79.82
2018-05-10T11:51:05.316Z,80.83
2018-05-10T11:52:06.003Z,80.60
2018-05-10T11:53:06.690Z,81.27
2018-05-10T11:54:07.375Z,80.73
2018-05-10T11:55:08.119Z,81.30
2018-05-10T11:56:08.834Z,82.14
2018-05-10T11:57:09.521Z,82.57
2018-05-10T11:58:10.200Z,82.96
2018-05-10T11:59:10.884Z,83.63
2018-05-10T12:00:11.566Z,83.34
2018-05-10T12:01:12.245Z,83.69
2018-05-10T12:02:12.939Z,84.01
2018-05-10T12:03:13.621Z,84.11
2018-05-10T12:04:14.297Z,84.07
2018-05-10T12:05:15.033Z,84.26
2018-05-10T12:06:15.712Z,84.07
2018-05-10T12:07:16.395Z,84.64
2018-05-10T12:08:17.068Z,84.07
2018-05-10T12:09:17.765Z,84.11
2018-05-10T12:10:18.449Z,83.92
2018-05-10T12:11:19.131Z,84.50
2018-05-10T12:12:19.859Z,84.78
2018-05-10T12:13:20.542Z,84.59
2018-05-10T12:14:21.231Z,85.07
2018-05-10T12:15:21.926Z,84.40
2018-05-10T12:16:22.607Z,83.97
2018-05-10T12:17:23.291Z,84.50
2018-05-10T12:18:23.970Z,84.59
2018-05-10T12:19:24.652Z,84.40
2018-05-10T12:20:25.384Z,84.11
2018-05-10T12:21:26.017Z,84.17
2018-05-10T12:22:26.698Z,84.84
2018-05-10T12:23:27.381Z,84.59
2018-05-10T12:24:28.080Z,84.94
2018-05-10T12:25:28.845Z,84.88
2018-05-10T12:26:29.445Z,84.98
2018-05-10T12:27:30.133Z,84.30
2018-05-10T12:28:30.812Z,83.92
2018-05-10T12:29:31.489Z,83.92
2018-05-10T12:30:32.259Z,84.94
2018-05-10T12:31:32.857Z,84.88
2018-05-10T12:32:33.538Z,84.36
2018-05-10T12:33:34.221Z,84.59
2018-05-10T12:34:34.901Z,84.50
2018-05-10T12:35:35.583Z,84.11
2018-05-10T12:36:36.265Z,84.40
2018-05-10T12:37:37.012Z,84.69
2018-05-10T12:38:37.696Z,84.78
2018-05-10T12:39:38.382Z,84.84
2018-05-10T12:40:39.066Z,84.94
2018-05-10T12:41:39.814Z,85.27
2018-05-10T12:42:40.439Z,84.40
2018-05-10T12:43:41.119Z,84.69
2018-05-10T12:44:41.797Z,84.69
2018-05-10T12:45:42.481Z,84.88
2018-05-10T12:46:43.160Z,84.50
2018-05-10T12:47:43.851Z,84.69
2018-05-10T12:48:44.588Z,84.74
2018-05-10T12:49:45.215Z,84.59
2018-05-10T12:50:45.912Z,84.88
2018-05-10T12:51:46.595Z,84.50
2018-05-10T12:52:47.284Z,84.54
2018-05-10T12:53:47.969Z,84.16
2018-05-10T12:54:48.658Z,83.67
2018-05-10T12:55:49.346Z,83.67
2018-05-10T12:56:50.028Z,84.30
2018-05-10T12:57:50.706Z,84.21
2018-05-10T12:58:51.388Z,83.44
2018-05-10T12:59:52.077Z,83.86
2018-05-10T13:00:52.765Z,83.48